Time;durP1;ratioP1;P1;durP2;ratioP2;P2;SDS_P1;SDS_P2;PMS_P1;PMS_P2;Temp;Humidity;BMP_temperature;BMP_pressure;BME280_temperature;BME280_humidity;BME280_pressure;Samples;Min_cycle;Max_cycle;Signal;HPM_P1;HPM_P2
2023/12/07 00:00:29;;;;;;;18.92;10.38;;;;;;;5.05;64.41;101909.31;5012062;28;123676;-77
2023/12/07 00:02:56;;;;;;;18.75;10.40;;;;;;;5.05;64.72;101900.56;4977337;28;125107;-77
2023/12/07 00:05:23;;;;;;;17.90;10.52;;;;;;;5.03;64.69;101903.19;4987240;28;114626;-77
2023/12/07 00:07:51;;;;;;;18.40;10.30;;;;;;;5.04;64.48;101914.56;4996190;28;113828;-77
2023/12/07 00:10:18;;;;;;;20.75;10.93;;;;;;;5.01;64.70;101914.56;4993956;28;122749;-77
2023/12/07 00:12:45;;;;;;;17.90;10.15;;;;;;;5.00;64.42;101907.59;4988733;28;123781;-77
2023/12/07 00:15:12;;;;;;;22.00;11.02;;;;;;;4.99;64.56;101911.06;4986140;28;114513;-77
2023/12/07 00:17:39;;;;;;;18.23;10.65;;;;;;;4.99;64.79;101916.34;4986424;28;115812;-77
2023/12/07 00:20:07;;;;;;;18.45;11.10;;;;;;;4.98;64.29;101901.47;4988464;28;122771;-78
2023/12/07 00:22:35;;;;;;;19.17;10.90;;;;;;;4.97;64.80;101907.59;4965841;28;124534;-77
2023/12/07 00:25:02;;;;;;;16.58;10.07;;;;;;;4.97;64.87;101912.84;5009084;28;115200;-77
2023/12/07 00:27:29;;;;;;;21.83;10.90;;;;;;;4.96;64.57;101909.34;5008417;28;114452;-77
2023/12/07 00:29:56;;;;;;;19.48;10.65;;;;;;;4.95;64.46;101914.59;5004499;28;124041;-77
2023/12/07 00:32:23;;;;;;;17.42;10.57;;;;;;;4.92;64.44;101909.38;4990566;28;125156;-77
2023/12/07 00:34:51;;;;;;;16.63;10.13;;;;;;;4.88;64.38;101909.38;4997401;28;112791;-77
2023/12/07 00:37:18;;;;;;;22.63;11.05;;;;;;;4.85;64.23;101909.38;4997961;28;112365;-77
2023/12/07 00:39:46;;;;;;;15.93;8.63;;;;;;;4.81;64.46;101896.31;4993972;28;124574;-77
2023/12/07 00:42:13;;;;;;;15.15;8.43;;;;;;;4.79;64.33;101903.31;4983905;28;124411;-77
2023/12/07 00:44:41;;;;;;;16.58;8.95;;;;;;;4.76;64.35;101914.66;5007361;28;114591;-77
2023/12/07 00:47:08;;;;;;;15.68;8.43;;;;;;;4.73;64.40;101909.44;5002027;28;113145;-77
2023/12/07 00:49:42;;;;;;;15.43;8.32;;;;;;;4.69;64.01;101907.72;4985333;28;123825;-77
2023/12/07 00:52:10;;;;;;;17.80;8.23;;;;;;;4.65;64.19;101919.09;4987405;28;124631;-77
2023/12/07 00:54:37;;;;;;;16.58;8.85;;;;;;;4.61;64.17;101909.47;5007940;28;114331;-77
2023/12/07 00:57:04;;;;;;;19.13;8.98;;;;;;;4.58;64.09;101914.75;4991252;28;114553;-77
2023/12/07 00:59:33;;;;;;;15.45;8.52;;;;;;;4.54;63.96;101918.25;5000280;28;123558;-77
2023/12/07 01:02:01;;;;;;;16.60;8.43;;;;;;;4.50;64.63;101914.75;4987560;28;125581;-77
2023/12/07 01:04:29;;;;;;;15.07;8.90;;;;;;;4.44;63.95;101913.00;4981113;28;114295;-78
2023/12/07 01:06:57;;;;;;;15.07;8.25;;;;;;;4.40;63.95;101913.91;5022374;28;114888;-77
2023/12/07 01:09:25;;;;;;;14.85;8.50;;;;;;;4.38;64.23;101912.19;5011024;28;123697;-77
2023/12/07 01:11:52;;;;;;;16.15;8.90;;;;;;;4.34;64.04;101911.31;4990026;28;122883;-77
2023/12/07 01:14:19;;;;;;;14.65;8.50;;;;;;;4.31;64.52;101916.53;5001183;28;114304;-77
2023/12/07 01:16:47;;;;;;;18.05;8.55;;;;;;;4.29;64.15;101923.53;4991946;28;113377;-78
2023/12/07 01:19:14;;;;;;;15.90;8.48;;;;;;;4.26;64.35;101913.06;4989003;28;123627;-77
2023/12/07 01:21:42;;;;;;;21.65;9.05;;;;;;;4.22;63.96;101917.44;4965156;28;123282;-78
2023/12/07 01:24:09;;;;;;;15.30;8.75;;;;;;;4.17;64.25;101931.44;4992597;28;113940;-77
2023/12/07 01:26:43;;;;;;;16.67;8.80;;;;;;;4.13;64.16;101933.19;4987140;28;114181;-77
2023/12/07 01:29:10;;;;;;;16.08;8.70;;;;;;;4.09;64.10;101934.94;4992431;28;124553;-77
2023/12/07 01:31:37;;;;;;;15.05;8.60;;;;;;;4.07;64.21;101934.06;5010345;28;124097;-77
2023/12/07 01:34:04;;;;;;;15.15;8.52;;;;;;;4.06;64.11;101932.31;4990166;28;114803;-78
2023/12/07 01:36:32;;;;;;;17.38;8.20;;;;;;;4.03;64.20;101936.66;5005401;28;113547;-77
2023/12/07 01:38:59;;;;;;;16.90;7.97;;;;;;;4.00;63.94;101936.69;4995760;28;124095;-77
2023/12/07 01:41:27;;;;;;;20.83;7.95;;;;;;;3.98;64.00;101934.06;4989503;28;124263;-78
2023/12/07 01:43:54;;;;;;;18.30;8.23;;;;;;;3.95;64.02;101944.53;5010994;28;114472;-78
2023/12/07 01:46:21;;;;;;;17.08;8.00;;;;;;;3.91;63.89;101937.56;4979856;28;112224;-77
2023/12/07 01:48:49;;;;;;;14.93;7.53;;;;;;;3.89;63.95;101949.78;4992881;28;122834;-77
2023/12/07 01:51:18;;;;;;;14.98;7.43;;;;;;;3.86;64.11;101947.16;4988473;28;125083;-77
2023/12/07 01:53:47;;;;;;;12.73;7.68;;;;;;;3.82;64.15;101942.78;5008510;28;115220;-78
2023/12/07 01:56:15;;;;;;;13.88;7.60;;;;;;;3.80;64.04;101939.28;4988675;28;115853;-78
2023/12/07 01:58:44;;;;;;;16.52;7.28;;;;;;;3.79;63.84;101948.03;5006602;28;123784;-78
2023/12/07 02:01:12;;;;;;;14.32;7.35;;;;;;;3.76;64.06;101943.66;4985717;28;122358;-78
2023/12/07 02:03:40;;;;;;;15.43;8.52;;;;;;;3.75;63.99;101938.41;4982590;28;115260;-78
2023/12/07 02:06:11;;;;;;;14.13;8.10;;;;;;;3.73;64.21;101942.78;5016324;28;113829;-78
2023/12/07 02:08:41;;;;;;;42.60;8.65;;;;;;;3.68;64.43;101938.41;5003089;28;123564;-78
2023/12/07 02:11:09;;;;;;;20.42;8.45;;;;;;;3.65;64.08;101950.63;4975268;28;125292;-78
2023/12/07 02:13:38;;;;;;;17.67;8.15;;;;;;;3.59;63.89;101951.50;4969159;28;113187;-78
2023/12/07 02:16:25;;;;;;;12.50;6.78;;;;;;;3.53;64.06;101956.72;4993742;28;113977;-78
2023/12/07 02:19:33;;;;;;;24.10;6.68;;;;;;;3.47;64.03;101961.97;4982491;28;125060;-78
2023/12/07 02:22:09;;;;;;;12.55;6.43;;;;;;;3.44;64.08;101957.56;4949490;28;126071;-78
2023/12/07 02:24:37;;;;;;;15.98;7.75;;;;;;;3.44;64.33;101956.72;4989890;28;114420;-78
2023/12/07 02:27:04;;;;;;;14.05;7.15;;;;;;;3.44;63.80;101951.47;5002844;28;114643;-78
2023/12/07 02:29:32;;;;;;;41.33;7.78;;;;;;;3.44;64.13;101946.22;4986040;28;122996;-78
2023/12/07 02:31:59;;;;;;;58.13;9.23;;;;;;;3.42;64.12;101942.75;4987604;28;124550;-78
2023/12/07 02:34:26;;;;;;;20.70;7.20;;;;;;;3.43;64.05;101957.59;5002346;28;113763;-78
2023/12/07 02:36:58;;;;;;;20.80;7.47;;;;;;;3.42;64.06;101943.59;4980082;28;112523;-79
2023/12/07 02:39:26;;;;;;;30.15;7.75;;;;;;;3.43;64.13;101944.50;4990023;28;123166;-78
2023/12/07 02:41:54;;;;;;;38.28;7.97;;;;;;;3.43;64.10;101944.50;4991150;28;125791;-78
2023/12/07 02:44:22;;;;;;;40.83;7.25;;;;;;;3.44;64.30;101946.22;4971274;28;115920;-78
2023/12/07 02:46:49;;;;;;;65.15;7.57;;;;;;;3.43;64.06;101944.50;4994394;28;115573;-78
2023/12/07 02:49:16;;;;;;;31.50;7.88;;;;;;;3.42;63.84;101947.97;4992196;28;124817;-78
2023/12/07 02:51:43;;;;;;;25.10;7.70;;;;;;;3.41;64.22;101940.97;4975626;28;123923;-78
2023/12/07 02:54:11;;;;;;;36.47;8.68;;;;;;;3.41;64.20;101946.22;4992604;28;113755;-78
2023/12/07 02:56:38;;;;;;;30.52;8.85;;;;;;;3.42;64.15;101942.75;4987095;28;112061;-78
2023/12/07 02:59:05;;;;;;;28.52;8.68;;;;;;;3.41;64.20;101934.00;5003811;28;123334;-78
2023/12/07 03:01:32;;;;;;;36.75;8.00;;;;;;;3.41;64.55;101934.00;4990374;28;126452;-78
2023/12/07 03:03:59;;;;;;;41.05;8.82;;;;;;;3.42;64.06;101937.50;4989908;28;115676;-78
2023/12/07 03:06:27;;;;;;;27.38;9.68;;;;;;;3.43;64.42;101928.78;4982961;28;114881;-78
2023/12/07 03:08:54;;;;;;;23.65;9.38;;;;;;;3.44;64.45;101938.38;5006936;28;123795;-78
2023/12/07 03:11:21;;;;;;;23.30;8.80;;;;;;;3.46;64.33;101929.63;4989765;28;123844;-78
2023/12/07 03:13:49;;;;;;;24.88;9.13;;;;;;;3.49;64.32;101931.41;4995160;28;114931;-78
2023/12/07 03:16:16;;;;;;;33.17;8.65;;;;;;;3.49;64.28;101924.41;5009348;28;114033;-78
2023/12/07 03:18:44;;;;;;;19.58;8.80;;;;;;;3.51;64.42;101924.44;4976815;28;124811;-78
2023/12/07 03:21:12;;;;;;;24.88;9.52;;;;;;;3.52;64.23;101928.78;4971927;28;124576;-78
2023/12/07 03:23:39;;;;;;;26.83;8.98;;;;;;;3.54;64.45;101927.03;4981132;28;113900;-78
2023/12/07 03:26:06;;;;;;;23.85;10.10;;;;;;;3.55;64.14;101928.78;4974700;28;112781;-78
2023/12/07 03:28:33;;;;;;;22.90;9.65;;;;;;;3.54;64.42;101927.03;5001663;28;123143;-78
2023/12/07 03:31:01;;;;;;;30.58;10.15;;;;;;;3.56;64.44;101933.19;5008634;28;123431;-78
2023/12/07 03:33:28;;;;;;;36.72;9.65;;;;;;;3.56;64.27;101935.78;5001484;28;115229;-78
2023/12/07 03:35:56;;;;;;;49.03;10.48;;;;;;;3.55;64.26;101934.03;5007812;28;115444;-78
2023/12/07 03:38:23;;;;;;;36.70;9.95;;;;;;;3.57;64.29;101931.41;4977427;28;124030;-78
2023/12/07 03:40:51;;;;;;;29.58;9.65;;;;;;;3.59;64.49;101941.00;4983327;28;123208;-78
2023/12/07 03:43:19;;;;;;;41.40;10.25;;;;;;;3.59;64.48;101941.00;4981962;28;114395;-78
2023/12/07 03:45:47;;;;;;;35.17;10.05;;;;;;;3.61;64.46;101944.50;5001370;28;114910;-78
2023/12/07 03:48:14;;;;;;;36.63;10.07;;;;;;;3.61;64.42;101939.28;4979872;28;125856;-78
2023/12/07 03:50:41;;;;;;;56.28;10.75;;;;;;;3.62;64.33;101951.50;5011305;28;124359;-78
2023/12/07 03:53:09;;;;;;;43.38;10.13;;;;;;;3.64;64.17;101948.91;4974209;28;115023;-78
2023/12/07 03:55:36;;;;;;;47.45;10.20;;;;;;;3.64;64.25;101948.91;4990743;28;113934;-78
2023/12/07 03:58:04;;;;;;;37.90;8.95;;;;;;;3.63;64.66;101942.75;4978309;28;124576;-78
2023/12/07 04:00:32;;;;;;;20.42;8.93;;;;;;;3.65;64.59;101945.38;5010809;28;123914;-78
2023/12/07 04:02:59;;;;;;;33.45;8.90;;;;;;;3.66;64.40;101953.25;5004897;28;114077;-78
2023/12/07 04:05:27;;;;;;;54.88;9.95;;;;;;;3.68;64.42;101956.75;4994099;28;113929;-78
2023/12/07 04:07:54;;;;;;;36.30;9.73;;;;;;;3.70;64.40;101959.38;4983093;28;124894;-78
2023/12/07 04:10:21;;;;;;;39.88;11.30;;;;;;;3.71;64.51;101955.88;4990470;28;124642;-78
2023/12/07 04:12:49;;;;;;;47.42;10.00;;;;;;;3.70;64.33;101959.38;5011147;28;113731;-78
2023/12/07 04:15:16;;;;;;;19.27;9.50;;;;;;;3.68;64.59;101962.00;4977822;28;115611;-78
2023/12/07 04:17:46;;;;;;;38.97;9.70;;;;;;;3.69;64.75;101965.47;4993882;28;123778;-78
2023/12/07 04:20:13;;;;;;;35.08;9.30;;;;;;;3.69;64.49;101963.75;4992488;28;122025;-78
2023/12/07 04:22:43;;;;;;;37.35;10.30;;;;;;;3.70;64.63;101970.72;5007035;28;114429;-78
2023/12/07 04:25:10;;;;;;;80.57;10.60;;;;;;;3.72;64.64;101973.34;4988613;28;114029;-79
2023/12/07 04:27:37;;;;;;;26.17;9.13;;;;;;;3.73;64.41;101975.13;4990432;28;123869;-78
2023/12/07 04:30:05;;;;;;;43.65;10.15;;;;;;;3.74;64.54;101970.75;4996440;28;124452;-78
2023/12/07 04:32:32;;;;;;;32.25;9.35;;;;;;;3.75;64.42;101972.47;4983778;28;116054;-79
2023/12/07 04:34:59;;;;;;;59.50;10.88;;;;;;;3.75;64.73;101975.09;5003277;28;114007;-79
2023/12/07 04:37:27;;;;;;;34.22;9.77;;;;;;;3.74;64.52;101981.22;5005529;28;123238;-78
2023/12/07 04:39:54;;;;;;;66.85;10.13;;;;;;;3.73;64.59;101982.06;4990726;28;123693;-78
2023/12/07 04:42:21;;;;;;;72.25;10.55;;;;;;;3.72;64.60;101988.22;4993484;28;114110;-79
2023/12/07 04:44:48;;;;;;;64.97;9.98;;;;;;;3.69;64.36;101989.94;4991765;28;114610;-79
2023/12/07 04:47:16;;;;;;;49.83;10.50;;;;;;;3.68;64.49;101993.44;4992036;28;123592;-78
2023/12/07 04:49:43;;;;;;;46.45;9.80;;;;;;;3.70;64.75;101990.81;4981431;28;124642;-78
2023/12/07 04:52:10;;;;;;;47.15;10.23;;;;;;;3.70;64.44;101991.69;4994977;28;114774;-79
2023/12/07 04:54:38;;;;;;;45.17;10.00;;;;;;;3.69;64.62;101995.19;4979205;28;112880;-78
2023/12/07 04:57:05;;;;;;;55.15;10.23;;;;;;;3.70;64.53;101991.69;4996926;28;124385;-79
2023/12/07 04:59:32;;;;;;;64.80;10.30;;;;;;;3.70;64.73;101989.06;4975978;28;124916;-79
2023/12/07 05:02:02;;;;;;;36.50;9.48;;;;;;;3.69;64.53;101984.72;5011313;28;114154;-79
2023/12/07 05:04:29;;;;;;;32.95;9.90;;;;;;;3.69;64.50;101974.22;4989513;28;113755;-79
2023/12/07 05:06:56;;;;;;;52.42;10.38;;;;;;;3.69;64.48;101984.72;4979008;28;123322;-79
2023/12/07 05:09:23;;;;;;;36.28;10.25;;;;;;;3.70;64.51;101991.69;5010545;28;124373;-78
2023/12/07 05:11:50;;;;;;;50.50;10.93;;;;;;;3.72;64.93;101977.72;4984400;28;114752;-79
2023/12/07 05:14:17;;;;;;;58.58;10.98;;;;;;;3.73;64.67;101964.63;4974725;28;115938;-79
2023/12/07 05:16:45;;;;;;;33.10;9.50;;;;;;;3.75;64.74;101969.84;5010688;28;123366;-78
2023/12/07 05:19:12;;;;;;;39.03;9.65;;;;;;;3.75;64.74;101967.22;4989482;28;124541;-79
2023/12/07 05:21:40;;;;;;;35.42;10.38;;;;;;;3.78;64.88;101972.47;4996820;28;114241;-78
2023/12/07 05:24:08;;;;;;;43.55;10.07;;;;;;;3.81;64.81;101972.50;4969677;28;115526;-78
2023/12/07 05:26:35;;;;;;;50.22;10.43;;;;;;;3.82;64.77;101976.84;4967682;28;125983;-79
2023/12/07 05:29:02;;;;;;;38.88;10.02;;;;;;;3.84;64.82;101972.47;4976541;28;123659;-79
2023/12/07 05:31:29;;;;;;;61.10;10.90;;;;;;;3.86;64.62;101973.34;4976452;28;115456;-79
2023/12/07 05:33:57;;;;;;;48.00;10.43;;;;;;;3.87;64.80;101967.25;4997538;28;113136;-79
2023/12/07 05:36:26;;;;;;;46.30;9.98;;;;;;;3.87;64.89;101969.88;4983027;28;124468;-79
2023/12/07 05:38:53;;;;;;;47.58;9.88;;;;;;;3.87;64.72;101962.00;4999818;28;124070;-79
2023/12/07 05:41:20;;;;;;;61.70;10.68;;;;;;;3.88;64.36;101963.75;4989343;28;113596;-78
2023/12/07 05:43:48;;;;;;;45.45;10.05;;;;;;;3.87;64.85;101962.00;4970175;28;115027;-78
2023/12/07 05:46:15;;;;;;;68.28;10.43;;;;;;;3.86;64.64;101960.25;4991243;28;124668;-78
2023/12/07 05:48:43;;;;;;;35.20;9.80;;;;;;;3.88;64.44;101963.75;4988053;28;124732;-78
2023/12/07 05:51:13;;;;;;;92.50;10.82;;;;;;;3.87;64.64;101967.25;4988432;28;113561;-78
2023/12/07 05:53:41;;;;;;;45.22;9.30;;;;;;;3.86;64.46;101960.25;5002672;28;114342;-78
2023/12/07 05:56:09;;;;;;;32.90;9.60;;;;;;;3.85;64.62;101963.75;5005297;28;124436;-78
2023/12/07 05:58:37;;;;;;;61.97;10.27;;;;;;;3.85;64.45;101963.75;4996034;28;124212;-78
2023/12/07 06:01:05;;;;;;;63.97;10.48;;;;;;;3.84;64.72;101962.91;5010382;28;114801;-78
2023/12/07 06:03:32;;;;;;;28.70;9.13;;;;;;;3.82;64.77;101958.50;4995276;28;113836;-78
2023/12/07 06:06:00;;;;;;;52.60;9.70;;;;;;;3.83;64.81;101960.28;5008637;28;124199;-78
2023/12/07 06:08:27;;;;;;;41.80;9.75;;;;;;;3.83;64.76;101960.28;4974540;28;124951;-79
2023/12/07 06:10:54;;;;;;;33.63;8.98;;;;;;;3.81;64.57;101956.78;4993200;28;112451;-79
2023/12/07 06:13:21;;;;;;;63.35;9.15;;;;;;;3.80;65.29;101949.78;4990402;28;113955;-79
2023/12/07 06:15:48;;;;;;;49.95;8.85;;;;;;;3.79;64.51;101953.28;4989943;28;124921;-78
2023/12/07 06:18:16;;;;;;;83.15;9.20;;;;;;;3.77;64.42;101944.53;4989773;28;124849;-79
2023/12/07 06:20:45;;;;;;;75.45;9.13;;;;;;;3.74;64.68;101952.41;4990894;28;115075;-78
2023/12/07 06:23:12;;;;;;;85.88;10.80;;;;;;;3.72;64.68;101947.16;4993202;28;114751;-79
2023/12/07 06:25:39;;;;;;;53.72;8.73;;;;;;;3.71;64.71;101950.63;4989115;28;124026;-78
2023/12/07 06:28:07;;;;;;;43.75;8.43;;;;;;;3.71;64.81;101955.88;5003671;28;123881;-78
2023/12/07 06:30:34;;;;;;;44.22;8.52;;;;;;;3.72;64.96;101956.75;4983647;28;115521;-79
2023/12/07 06:33:02;;;;;;;53.97;9.45;;;;;;;3.74;64.87;101968.13;4991946;28;115045;-79
2023/12/07 06:35:30;;;;;;;33.22;8.80;;;;;;;3.72;64.93;101962.88;4996486;28;125064;-79
2023/12/07 06:37:57;;;;;;;24.65;7.90;;;;;;;3.73;64.62;101974.22;4992315;28;124059;-79
2023/12/07 06:40:24;;;;;;;44.53;8.52;;;;;;;3.73;64.95;101961.13;4974780;28;115159;-79
2023/12/07 06:42:51;;;;;;;34.13;8.23;;;;;;;3.72;64.76;101967.25;4982787;28;113488;-79
2023/12/07 06:45:19;;;;;;;55.40;8.70;;;;;;;3.73;64.89;101963.75;4992412;28;124519;-79
2023/12/07 06:47:46;;;;;;;66.85;8.75;;;;;;;3.73;64.78;101968.97;4991235;28;122897;-78
2023/12/07 06:50:13;;;;;;;33.22;8.35;;;;;;;3.75;64.90;101972.47;4991487;28;116519;-78
2023/12/07 06:52:40;;;;;;;28.48;8.68;;;;;;;3.75;65.11;101973.38;4991463;28;115834;-79
2023/12/07 06:55:10;;;;;;;67.95;8.80;;;;;;;3.76;64.93;101974.22;5007594;28;123621;-78
2023/12/07 06:57:37;;;;;;;43.80;7.90;;;;;;;3.75;64.73;101962.00;4978473;28;125455;-79
2023/12/07 07:00:10;;;;;;;37.10;8.02;;;;;;;3.76;64.74;101963.75;4988320;28;113958;-79
2023/12/07 07:02:39;;;;;;;36.30;8.02;;;;;;;3.77;64.98;101966.38;4991612;28;113721;-79
2023/12/07 07:05:06;;;;;;;42.50;8.70;;;;;;;3.77;65.00;101970.72;4987510;28;122286;-79
2023/12/07 07:07:34;;;;;;;42.22;8.32;;;;;;;3.78;65.09;101972.47;4973382;28;125449;-79
2023/12/07 07:10:02;;;;;;;56.25;8.43;;;;;;;3.78;64.97;101962.00;5007480;28;114616;-79
2023/12/07 07:12:30;;;;;;;37.80;7.93;;;;;;;3.78;65.03;101964.63;4993710;28;115003;-79
2023/12/07 07:14:57;;;;;;;39.28;7.13;;;;;;;3.81;64.94;101967.25;4976714;28;125398;-79
2023/12/07 07:17:24;;;;;;;60.92;7.82;;;;;;;3.79;64.89;101959.41;4986800;28;124141;-78
2023/12/07 07:19:52;;;;;;;39.08;6.70;;;;;;;3.80;65.07;101955.00;4998242;28;116157;-79
2023/12/07 07:22:19;;;;;;;26.25;4.70;;;;;;;3.80;64.90;101965.50;4981127;28;113587;-79
2023/12/07 07:24:47;;;;;;;19.25;4.47;;;;;;;3.81;64.93;101959.41;5015135;28;123860;-79
2023/12/07 07:27:14;;;;;;;22.63;5.32;;;;;;;3.82;65.00;101955.88;4972820;28;125680;-79
2023/12/07 07:29:41;;;;;;;22.88;4.57;;;;;;;3.81;64.94;101956.78;4995171;28;114294;-79
2023/12/07 07:32:09;;;;;;;29.45;4.90;;;;;;;3.82;65.04;101969.00;4999128;28;114559;-79
2023/12/07 07:34:36;;;;;;;15.70;4.45;;;;;;;3.84;64.93;101967.25;5006357;28;124008;-79
2023/12/07 07:37:03;;;;;;;39.80;5.25;;;;;;;3.88;64.92;101969.00;4994254;28;124305;-79
2023/12/07 07:39:31;;;;;;;50.20;5.13;;;;;;;3.89;64.79;101976.84;5005676;28;116064;-79
2023/12/07 07:41:58;;;;;;;10.80;4.18;;;;;;;3.90;64.90;101972.50;4988390;28;116138;-79
2023/12/07 07:44:25;;;;;;;18.35;4.30;;;;;;;3.91;65.02;101963.75;5004608;28;125082;-79
2023/12/07 07:46:52;;;;;;;12.98;3.92;;;;;;;3.91;65.00;101969.00;4981856;28;121863;-79
2023/12/07 07:49:19;;;;;;;22.08;4.28;;;;;;;3.91;65.08;101969.00;5014889;28;114283;-79
2023/12/07 07:51:46;;;;;;;11.30;4.27;;;;;;;3.92;64.83;101975.09;4955488;28;1168626;-80
2023/12/07 07:54:13;;;;;;;21.17;4.25;;;;;;;3.93;64.97;101975.13;5015481;28;125020;-79
2023/12/07 07:56:42;;;;;;;22.15;3.95;;;;;;;3.95;64.70;101976.00;4994674;28;121926;-79
2023/12/07 07:59:11;;;;;;;31.95;3.92;;;;;;;3.96;64.76;101977.75;5029959;28;114808;-79
2023/12/07 08:01:38;;;;;;;26.80;4.60;;;;;;;3.97;64.75;101984.72;5016534;28;113419;-79
2023/12/07 08:04:05;;;;;;;13.27;4.32;;;;;;;3.98;64.81;101981.25;4995574;28;124656;-79
2023/12/07 08:06:34;;;;;;;14.73;4.18;;;;;;;3.99;65.07;101982.97;4998674;28;124999;-79
2023/12/07 08:09:04;;;;;;;18.42;4.13;;;;;;;4.02;64.89;101976.88;5013924;28;114982;-79
2023/12/07 08:11:32;;;;;;;37.05;4.07;;;;;;;4.04;64.99;101986.47;5010841;28;114977;-79
2023/12/07 08:13:59;;;;;;;27.30;4.50;;;;;;;4.06;64.85;101984.72;5018541;28;124340;-79
2023/12/07 08:16:27;;;;;;;19.63;4.55;;;;;;;4.07;64.80;101978.63;4992066;28;122942;-79
2023/12/07 08:18:54;;;;;;;18.45;3.92;;;;;;;4.08;65.03;101977.75;5004221;28;114525;-79
2023/12/07 08:21:23;;;;;;;17.83;4.32;;;;;;;4.09;65.01;101974.25;4995822;28;113101;-79
2023/12/07 08:23:56;;;;;;;30.60;4.60;;;;;;;4.09;65.05;101973.41;4977957;28;125844;-79
2023/12/07 08:26:23;;;;;;;24.90;4.70;;;;;;;4.09;64.99;101973.41;4979590;28;122659;-79
2023/12/07 08:28:53;;;;;;;16.80;4.10;;;;;;;4.09;64.62;101968.16;4987368;28;115216;-78
2023/12/07 08:31:23;;;;;;;18.70;4.05;;;;;;;4.09;64.85;101955.91;4979979;28;115540;-79
2023/12/07 08:33:57;;;;;;;23.65;4.82;;;;;;;4.09;65.06;101969.00;4990954;28;124376;-80
2023/12/07 08:36:26;;;;;;;13.95;4.15;;;;;;;4.09;64.95;101971.63;4991313;28;125970;-77
2023/12/07 08:38:54;;;;;;;15.75;4.00;;;;;;;4.10;64.95;101976.00;4999026;28;113449;-77
2023/12/07 08:41:21;;;;;;;21.38;4.38;;;;;;;4.13;65.11;101979.50;5005243;28;114173;-77
2023/12/07 08:43:48;;;;;;;11.95;3.97;;;;;;;4.13;64.73;101985.63;4985335;28;122167;-77
2023/12/07 08:46:16;;;;;;;17.50;4.88;;;;;;;4.13;64.76;101974.28;5018759;28;123889;-77
2023/12/07 08:48:43;;;;;;;16.67;4.60;;;;;;;4.15;65.04;101983.00;5007098;28;113594;-77
2023/12/07 08:51:10;;;;;;;23.45;4.40;;;;;;;4.15;65.16;101973.38;5016848;28;112892;-77
2023/12/07 08:53:38;;;;;;;24.02;5.07;;;;;;;4.18;65.20;101978.63;5036206;28;124508;-78
2023/12/07 08:56:06;;;;;;;12.68;4.38;;;;;;;4.20;65.12;101970.75;5017823;28;123720;-77
2023/12/07 08:58:37;;;;;;;19.65;5.18;;;;;;;4.22;65.31;101975.13;5012531;28;114575;-79
2023/12/07 09:01:09;;;;;;;16.38;5.00;;;;;;;4.28;65.26;101966.41;4994222;28;113541;-77
2023/12/07 09:03:52;;;;;;;31.90;5.53;;;;;;;4.30;64.97;101972.50;4986165;28;122689;-78
2023/12/07 09:06:19;;;;;;;20.23;4.70;;;;;;;4.34;65.00;101969.00;5005079;28;124463;-78
2023/12/07 09:08:46;;;;;;;16.13;4.70;;;;;;;4.37;65.10;101969.00;5029256;28;114386;-78
2023/12/07 09:11:13;;;;;;;23.48;5.40;;;;;;;4.40;65.16;101963.75;5017586;28;113505;-78
2023/12/07 09:13:40;;;;;;;23.73;5.32;;;;;;;4.43;64.91;101958.50;5034079;28;123854;-78
2023/12/07 09:16:08;;;;;;;17.95;6.18;;;;;;;4.44;65.21;101954.97;5009459;28;121590;-77
2023/12/07 09:18:36;;;;;;;22.45;5.70;;;;;;;4.49;65.26;101953.22;5012850;28;113949;-78
2023/12/07 09:21:04;;;;;;;26.65;5.28;;;;;;;4.52;65.21;101951.47;4997914;28;113112;-78
2023/12/07 09:23:31;;;;;;;32.25;5.75;;;;;;;4.54;65.30;101949.72;4992919;28;122534;-77
2023/12/07 09:25:58;;;;;;;20.92;5.82;;;;;;;4.55;65.05;101956.72;5015656;28;122286;-77
2023/12/07 09:28:25;;;;;;;29.63;5.20;;;;;;;4.58;65.33;101962.84;5017065;28;113976;-77
2023/12/07 09:30:52;;;;;;;23.63;6.75;;;;;;;4.61;65.08;101956.72;4994999;28;113697;-77
2023/12/07 09:33:20;;;;;;;21.55;6.82;;;;;;;4.65;65.27;101953.19;5012048;28;123910;-77
2023/12/07 09:35:49;;;;;;;17.70;6.70;;;;;;;4.71;65.36;101952.31;5019104;28;124344;-77
2023/12/07 09:38:16;;;;;;;22.73;6.43;;;;;;;4.74;65.63;101942.66;5001048;28;114298;-77
2023/12/07 09:40:46;;;;;;;26.15;6.70;;;;;;;4.79;65.38;101951.41;4975494;28;112240;-78
2023/12/07 09:43:13;;;;;;;23.02;6.20;;;;;;;4.84;65.10;101952.28;5005107;28;124111;-77
2023/12/07 09:45:40;;;;;;;20.60;7.05;;;;;;;4.89;65.23;101968.00;4994237;28;123398;-77
2023/12/07 09:48:08;;;;;;;18.83;7.10;;;;;;;4.94;65.35;101965.38;4987863;28;112385;-77
2023/12/07 09:50:35;;;;;;;18.58;6.78;;;;;;;4.96;65.35;101942.63;4996355;28;112392;-77
2023/12/07 09:53:03;;;;;;;20.23;6.80;;;;;;;5.00;65.26;101944.34;4972837;28;124552;-77
2023/12/07 09:55:35;;;;;;;15.75;6.25;;;;;;;5.03;65.37;101939.09;4976776;28;123252;-77
2023/12/07 09:58:08;;;;;;;20.98;7.05;;;;;;;5.06;65.18;101939.91;4991962;28;113449;-78
2023/12/07 10:00:37;;;;;;;24.63;7.22;;;;;;;5.12;65.26;101931.16;4992599;28;113017;-78
2023/12/07 10:03:09;;;;;;;22.45;6.95;;;;;;;5.18;65.43;101918.00;4983298;28;124763;-77
2023/12/07 10:05:58;;;;;;;21.70;7.82;;;;;;;5.22;65.32;101914.47;4989993;28;123688;-78
2023/12/07 10:08:29;;;;;;;18.73;7.43;;;;;;;5.28;65.24;101917.97;4991937;28;113697;-78
2023/12/07 10:11:08;;;;;;;19.80;8.18;;;;;;;5.32;65.41;101909.16;4992036;28;115823;-78
2023/12/07 10:13:37;;;;;;;23.73;8.63;;;;;;;5.35;65.48;101909.13;5010302;28;123922;-78
2023/12/07 10:16:10;;;;;;;22.45;8.02;;;;;;;5.38;65.41;101898.63;5011072;28;123329;-78
2023/12/07 10:18:40;;;;;;;20.77;7.25;;;;;;;5.42;65.24;101895.94;5010561;28;114293;-78
2023/12/07 10:21:11;;;;;;;20.98;7.72;;;;;;;5.50;65.46;101893.28;4974429;28;115920;-77
2023/12/07 10:23:40;;;;;;;22.08;8.20;;;;;;;5.55;65.63;101888.00;4969313;28;125097;-78
2023/12/07 10:26:07;;;;;;;25.67;9.07;;;;;;;5.59;65.39;101893.19;4997664;28;123068;-77
2023/12/07 10:28:38;;;;;;;20.58;7.85;;;;;;;5.63;65.58;101889.69;4977423;28;114556;-77
2023/12/07 10:31:09;;;;;;;21.48;8.25;;;;;;;5.69;65.67;101877.38;5004872;28;114353;-78
2023/12/07 10:33:37;;;;;;;20.92;7.80;;;;;;;5.74;65.44;101870.31;4990879;28;124668;-77
2023/12/07 10:36:06;;;;;;;23.50;8.85;;;;;;;5.81;65.56;101866.75;4974401;28;125131;-77
2023/12/07 10:38:34;;;;;;;18.92;8.15;;;;;;;5.86;65.32;101867.59;4991407;28;114069;-77
2023/12/07 10:41:08;;;;;;;20.20;7.95;;;;;;;5.91;65.51;101855.25;4984071;28;114292;-77
2023/12/07 10:43:42;;;;;;;20.63;8.23;;;;;;;5.94;65.35;101852.63;4967483;28;122453;-77
2023/12/07 10:46:18;;;;;;;17.67;7.93;;;;;;;5.96;65.32;101850.00;4981450;28;122888;-78
2023/12/07 10:48:49;;;;;;;21.85;8.50;;;;;;;5.98;65.13;101838.56;4978966;28;113990;-78
2023/12/07 10:51:34;;;;;;;23.33;8.70;;;;;;;6.01;65.32;101825.41;4981971;28;113777;-77
2023/12/07 10:54:04;;;;;;;22.00;7.40;;;;;;;6.07;65.65;101826.25;4988120;28;124585;-78
2023/12/07 10:56:42;;;;;;;25.70;9.13;;;;;;;6.11;65.39;101822.69;4988058;28;123920;-77
2023/12/07 10:59:11;;;;;;;18.65;7.45;;;;;;;6.16;65.71;101816.50;4999215;28;115874;-77
2023/12/07 11:01:47;;;;;;;19.58;7.97;;;;;;;6.22;65.51;101810.28;4970092;28;115179;-78
2023/12/07 11:04:15;;;;;;;22.23;8.70;;;;;;;6.26;65.37;101806.72;4992233;28;125030;-78
2023/12/07 11:06:49;;;;;;;23.20;8.48;;;;;;;6.34;65.47;101799.59;4989601;28;124462;-77
2023/12/07 11:09:23;;;;;;;28.63;9.65;;;;;;;6.40;65.56;101802.19;5016535;28;114529;-77
2023/12/07 11:12:10;;;;;;;18.92;8.05;;;;;;;6.48;65.55;101811.72;4993677;28;113718;-77
2023/12/07 11:14:38;;;;;;;21.55;8.45;;;;;;;6.52;65.58;101795.88;4976067;28;124413;-77
2023/12/07 11:17:06;;;;;;;22.10;8.70;;;;;;;6.59;65.60;101794.03;5004588;28;123741;-79
2023/12/07 11:19:36;;;;;;;19.58;8.18;;;;;;;6.64;65.52;101792.22;4997496;28;113254;-78